createdAt,value
2018-08-06T00:03:51.501Z,1.90
2018-08-06T00:08:55.605Z,2.23
2018-08-06T00:13:59.709Z,2.20
2018-08-06T00:19:03.877Z,2.27
2018-08-06T00:24:08.021Z,2.40
2018-08-06T00:29:12.134Z,2.10
2018-08-06T00:34:16.331Z,2.47
2018-08-06T00:39:20.501Z,2.50
2018-08-06T00:44:24.617Z,2.30
2018-08-06T00:49:28.726Z,2.40
2018-08-06T00:54:32.886Z,2.30
2018-08-06T00:59:36.729Z,2.63
2018-08-06T01:04:40.577Z,2.20
2018-08-06T01:09:44.689Z,2.35
2018-08-06T01:14:48.863Z,2.20
2018-08-06T01:19:52.941Z,2.10
2018-08-06T01:24:57.093Z,2.57
2018-08-06T01:30:01.192Z,2.07
2018-08-06T01:35:06.197Z,2.03
2018-08-06T01:40:14.595Z,1.93
2018-08-06T01:45:18.695Z,2.10
2018-08-06T01:50:22.799Z,2.40
2018-08-06T01:55:26.965Z,2.23
2018-08-06T02:00:31.101Z,2.37
2018-08-06T02:05:35.265Z,2.13
2018-08-06T02:10:39.368Z,2.10
2018-08-06T02:15:43.479Z,2.20
2018-08-06T02:20:47.350Z,2.20
2018-08-06T02:25:51.457Z,2.20
2018-08-06T02:30:55.550Z,2.40
2018-08-06T02:35:59.392Z,2.20
2018-08-06T02:41:03.497Z,2.40
2018-08-06T02:46:07.933Z,2.10
2018-08-06T02:51:12.046Z,2.65
2018-08-06T02:56:16.183Z,2.13
2018-08-06T03:01:20.321Z,2.20
2018-08-06T03:06:24.173Z,2.53
2018-08-06T03:11:28.311Z,2.20
2018-08-06T03:16:32.431Z,2.10
2018-08-06T03:21:36.657Z,2.13
2018-08-06T03:26:47.378Z,2.30
2018-08-06T03:31:51.473Z,2.27
2018-08-06T03:36:55.573Z,2.20
2018-08-06T03:41:59.705Z,2.10
2018-08-06T03:47:03.757Z,2.17
2018-08-06T03:52:08.049Z,2.57
2018-08-06T03:57:11.868Z,2.70
2018-08-06T04:02:15.962Z,2.57
2018-08-06T04:07:20.026Z,2.83
2018-08-06T04:12:24.093Z,2.60
2018-08-06T04:17:28.774Z,2.50
2018-08-06T04:22:32.863Z,2.40
2018-08-06T04:27:37.343Z,2.50
2018-08-06T04:32:41.824Z,2.50
2018-08-06T04:37:46.120Z,2.50
2018-08-06T04:42:49.945Z,2.40
2018-08-06T04:47:53.762Z,2.63
2018-08-06T04:52:57.824Z,2.20
2018-08-06T04:58:01.882Z,2.70
2018-08-06T05:03:12.193Z,2.40
2018-08-06T05:08:16.265Z,2.50
2018-08-06T05:13:20.298Z,2.57
2018-08-06T05:18:24.422Z,2.50
2018-08-06T05:23:44.567Z,2.10
2018-08-06T05:28:49.450Z,2.30
2018-08-06T05:33:54.098Z,2.13
2018-08-06T05:38:57.901Z,1.93
2018-08-06T05:44:01.719Z,1.90
2018-08-06T05:49:05.802Z,1.90
2018-08-06T05:54:09.947Z,1.80
2018-08-06T05:59:13.756Z,2.10
2018-08-06T06:04:17.846Z,2.10
2018-08-06T06:09:21.933Z,2.50
2018-08-06T06:14:25.762Z,2.40
2018-08-06T06:19:29.565Z,2.10
2018-08-06T06:24:33.410Z,2.00
2018-08-06T06:29:37.467Z,1.93
2018-08-06T06:34:41.634Z,2.00
2018-08-06T06:39:45.670Z,1.90
2018-08-06T06:44:49.486Z,1.90
2018-08-06T06:49:53.542Z,1.80
2018-08-06T06:54:57.685Z,1.97
2018-08-06T07:00:01.816Z,1.60
2018-08-06T07:05:06.940Z,1.60
2018-08-06T07:10:12.499Z,1.75
2018-08-06T07:15:17.539Z,2.00
2018-08-06T07:20:21.917Z,1.83
2018-08-06T07:25:26.010Z,1.83
2018-08-06T07:30:30.055Z,1.90
2018-08-06T07:35:34.138Z,2.00
2018-08-06T07:40:38.218Z,2.07
2018-08-06T07:45:42.414Z,1.87
2018-08-06T07:50:46.666Z,1.80
2018-08-06T07:55:50.875Z,2.00
2018-08-06T08:00:54.722Z,2.00
2018-08-06T08:05:58.826Z,1.87
2018-08-06T08:11:02.659Z,2.08
2018-08-06T08:16:06.962Z,1.75
2018-08-06T08:21:11.030Z,2.10
2018-08-06T08:26:15.078Z,2.10
2018-08-06T08:31:19.158Z,2.27
2018-08-06T08:36:22.982Z,2.00
2018-08-06T08:41:26.798Z,2.37
2018-08-06T08:46:30.612Z,2.10
2018-08-06T08:51:34.662Z,2.00
2018-08-06T08:56:38.814Z,1.85
2018-08-06T09:01:42.861Z,2.10
2018-08-06T09:06:46.925Z,2.00
2018-08-06T09:11:51.479Z,1.90
2018-08-06T09:16:55.566Z,1.90
2018-08-06T09:21:59.634Z,2.10
2018-08-06T09:27:03.697Z,2.00
2018-08-06T09:32:07.786Z,1.87
2018-08-06T09:37:11.864Z,2.05
2018-08-06T09:42:15.937Z,1.90
2018-08-06T09:47:21.059Z,1.75
2018-08-06T09:52:24.899Z,2.15
2018-08-06T09:57:28.721Z,1.90
2018-08-06T10:02:32.806Z,2.10
2018-08-06T10:07:36.621Z,1.95
2018-08-06T10:12:40.882Z,1.90
2018-08-06T10:17:45.802Z,2.27
2018-08-06T10:22:49.749Z,2.00
2018-08-06T10:27:53.833Z,2.20
2018-08-06T10:32:57.901Z,2.00
2018-08-06T10:38:01.962Z,2.20
2018-08-06T10:43:06.095Z,2.20
2018-08-06T10:48:10.188Z,2.08
2018-08-06T10:53:14.241Z,2.20
2018-08-06T10:58:18.299Z,2.33
2018-08-06T11:03:22.466Z,2.10
2018-08-06T11:08:26.298Z,2.15
2018-08-06T11:13:30.376Z,2.02
2018-08-06T11:18:34.246Z,1.98
2018-08-06T11:23:38.063Z,2.20
2018-08-06T11:28:41.886Z,2.10
2018-08-06T11:33:45.951Z,2.10
2018-08-06T11:38:50.019Z,2.47
2018-08-06T11:43:54.133Z,1.87
2018-08-06T11:48:58.235Z,1.92
2018-08-06T11:54:02.234Z,1.87
2018-08-06T11:59:06.045Z,1.90
2018-08-06T12:04:10.119Z,2.00
2018-08-06T12:09:14.197Z,2.00
2018-08-06T12:14:18.239Z,1.52
2018-08-06T12:19:22.300Z,1.82
2018-08-06T12:24:26.365Z,1.75
2018-08-06T12:29:30.442Z,1.57
2018-08-06T12:34:34.597Z,1.65
2018-08-06T12:39:38.699Z,1.80
2018-08-06T12:44:42.780Z,1.65
2018-08-06T12:49:46.844Z,1.80
2018-08-06T12:54:50.988Z,1.42
2018-08-06T12:59:55.140Z,1.80
2018-08-06T13:04:59.009Z,1.82
2018-08-06T13:10:04.650Z,1.75
2018-08-06T13:15:10.822Z,1.60
2018-08-06T13:20:14.637Z,1.62
2018-08-06T13:25:18.719Z,1.55
2018-08-06T13:30:22.742Z,1.60
2018-08-06T13:35:26.793Z,1.80
2018-08-06T13:40:30.854Z,1.70
2018-08-06T13:45:34.693Z,1.50
2018-08-06T13:50:38.758Z,1.30
2018-08-06T13:55:42.917Z,1.70
2018-08-06T14:00:46.734Z,1.60
2018-08-06T14:05:50.642Z,1.52
2018-08-06T14:10:54.467Z,1.60
2018-08-06T14:15:58.276Z,1.87
2018-08-06T14:21:02.353Z,1.50
2018-08-06T14:26:06.176Z,1.47
2018-08-06T14:31:10.254Z,1.50
2018-08-06T14:36:14.336Z,1.60
2018-08-06T14:41:18.399Z,1.60
2018-08-06T14:46:23.190Z,1.45
2018-08-06T14:51:27.255Z,1.60
2018-08-06T14:56:31.327Z,1.55
2018-08-06T15:01:35.406Z,1.60
2018-08-06T15:06:39.454Z,2.27
2018-08-06T15:11:44.027Z,1.90
2018-08-06T15:16:48.099Z,1.72
2018-08-06T15:21:52.290Z,1.85
2018-08-06T15:26:56.844Z,2.00
2018-08-06T15:32:00.713Z,2.00
2018-08-06T15:37:04.493Z,1.93
2018-08-06T15:42:08.581Z,2.10
2018-08-06T15:47:12.650Z,2.10
2018-08-06T15:52:16.754Z,2.15
2018-08-06T15:57:20.853Z,1.87
2018-08-06T16:02:24.674Z,2.30
2018-08-06T16:07:28.775Z,2.20
2018-08-06T16:12:32.852Z,2.10
2018-08-06T16:17:36.992Z,2.08
2018-08-06T16:22:41.372Z,1.80
2018-08-06T16:27:45.567Z,2.10
2018-08-06T16:32:50.043Z,2.05
2018-08-06T16:37:56.075Z,2.25
2018-08-06T16:43:00.407Z,2.47
2018-08-06T16:48:04.629Z,2.33
2018-08-06T16:53:09.030Z,2.20
2018-08-06T16:58:13.108Z,2.40
2018-08-06T17:03:16.933Z,2.55
2018-08-06T17:08:20.905Z,2.45
2018-08-06T17:13:24.970Z,2.50
2018-08-06T17:18:28.802Z,2.40
2018-08-06T17:23:32.860Z,2.33
2018-08-06T17:28:36.949Z,2.37
2018-08-06T17:33:41.110Z,2.50
2018-08-06T17:38:45.236Z,2.87
2018-08-06T17:43:49.040Z,2.37
2018-08-06T17:48:53.278Z,2.42
2018-08-06T17:53:57.381Z,2.58
2018-08-06T17:59:01.197Z,2.60
2018-08-06T18:04:05.030Z,2.67
2018-08-06T18:09:11.599Z,2.35
2018-08-06T18:14:15.481Z,2.20
2018-08-06T18:19:19.301Z,2.20
2018-08-06T18:24:23.459Z,2.30
2018-08-06T18:29:27.524Z,2.22
2018-08-06T18:34:31.587Z,2.20
2018-08-06T18:39:35.389Z,2.20
2018-08-06T18:44:39.630Z,2.30
2018-08-06T18:49:43.710Z,2.55
2018-08-06T18:54:47.785Z,2.75
2018-08-06T18:59:51.862Z,2.47
2018-08-06T19:04:56.537Z,2.30
2018-08-06T19:10:00.666Z,2.30
2018-08-06T19:15:04.912Z,2.20
2018-08-06T19:20:08.995Z,2.58
2018-08-06T19:25:18.382Z,2.47
2018-08-06T19:30:26.565Z,2.72
2018-08-06T19:35:30.419Z,2.40
2018-08-06T19:40:34.237Z,2.77
2018-08-06T19:45:38.171Z,2.60
2018-08-06T19:50:43.587Z,2.52
2018-08-06T19:55:52.902Z,2.70
2018-08-06T20:00:56.974Z,2.70
2018-08-06T20:06:01.033Z,2.60
2018-08-06T20:11:07.031Z,2.67
2018-08-06T20:16:10.853Z,2.80
2018-08-06T20:21:14.983Z,2.63
2018-08-06T20:26:19.067Z,2.83
2018-08-06T20:31:22.895Z,2.90
2018-08-06T20:36:26.982Z,2.67
2018-08-06T20:41:31.016Z,2.97
2018-08-06T20:46:35.776Z,3.03
2018-08-06T20:51:40.820Z,2.77
2018-08-06T20:56:44.937Z,2.50
2018-08-06T21:01:49.438Z,2.73
2018-08-06T21:06:53.624Z,3.00
2018-08-06T21:11:57.481Z,2.37
2018-08-06T21:17:01.351Z,2.60
2018-08-06T21:22:05.587Z,3.00
2018-08-06T21:27:09.470Z,3.17
2018-08-06T21:32:13.334Z,3.10
2018-08-06T21:37:17.183Z,2.70
2018-08-06T21:42:21.172Z,2.87
2018-08-06T21:47:25.081Z,2.77
2018-08-06T21:52:28.985Z,3.00
2018-08-06T21:57:33.096Z,2.80
2018-08-06T22:02:37.318Z,3.07
2018-08-06T22:07:41.176Z,2.77
2018-08-06T22:12:45.290Z,2.87
2018-08-06T22:17:49.412Z,3.00
2018-08-06T22:22:53.760Z,3.23
2018-08-06T22:27:57.838Z,3.03
2018-08-06T22:33:01.699Z,2.83
2018-08-06T22:38:05.582Z,2.80
2018-08-06T22:43:09.466Z,2.70
2018-08-06T22:48:13.542Z,3.47
2018-08-06T22:53:17.641Z,3.03
2018-08-06T22:58:21.717Z,3.00
2018-08-06T23:03:25.814Z,3.20
2018-08-06T23:08:29.904Z,3.03
2018-08-06T23:13:33.978Z,3.33
2018-08-06T23:18:37.800Z,3.20
2018-08-06T23:23:41.618Z,3.00
2018-08-06T23:28:45.710Z,3.23
2018-08-06T23:33:49.797Z,3.40
2018-08-06T23:38:54.010Z,2.93
2018-08-06T23:43:57.862Z,3.30
2018-08-06T23:49:01.964Z,3.10
2018-08-06T23:54:06.098Z,3.47
2018-08-06T23:59:10.185Z,3.30
